createdAt,value
2019-06-27T05:09:05.044Z,52.80
2019-06-27T05:11:33.881Z,50.60
2019-06-27T05:14:02.970Z,50.30
2019-06-27T05:16:31.438Z,50.60
2019-06-27T05:19:00.265Z,50.30
2019-06-27T05:21:29.107Z,51.10
2019-06-27T05:23:57.823Z,51.20
2019-06-27T05:26:26.322Z,50.30
2019-06-27T05:28:55.424Z,50.20
2019-06-27T05:31:24.499Z,50.40
2019-06-27T05:33:53.268Z,50.30
2019-06-27T05:36:22.366Z,51.00
2019-06-27T05:38:50.837Z,50.20
2019-06-27T05:41:19.706Z,50.20
2019-06-27T05:43:48.565Z,50.40
2019-06-27T05:46:17.112Z,50.20
2019-06-27T05:48:46.277Z,49.90
2019-06-27T05:51:15.405Z,50.00
2019-06-27T05:53:45.694Z,50.20
2019-06-27T05:56:13.394Z,50.20
2019-06-27T05:58:42.307Z,49.40
2019-06-27T06:01:11.071Z,49.60
2019-06-27T06:03:39.811Z,50.10
2019-06-27T06:06:08.962Z,50.10
2019-06-27T06:11:06.095Z,50.40
2019-06-27T06:13:34.947Z,50.10
2019-06-27T06:16:04.086Z,49.80
2019-06-27T06:18:32.958Z,50.10
2019-06-27T06:21:02.047Z,49.80
2019-06-27T06:23:31.429Z,49.70
2019-06-27T06:26:00.179Z,49.90
2019-06-27T06:28:28.692Z,49.50
2019-06-27T06:30:57.778Z,49.80
2019-06-27T06:33:26.314Z,49.60
2019-06-27T06:35:55.078Z,50.00
2019-06-27T06:38:23.929Z,49.60
2019-06-27T06:40:53.133Z,49.20
2019-06-27T06:43:21.640Z,49.40
2019-06-27T06:45:50.126Z,49.30
2019-06-27T06:48:19.008Z,49.50
2019-06-27T06:50:48.201Z,49.10
2019-06-27T06:55:45.826Z,49.30
2019-06-27T06:58:14.773Z,49.10
2019-06-27T07:00:57.048Z,49.00
2019-06-27T07:03:12.787Z,48.70
2019-06-27T07:05:41.465Z,49.40
2019-06-27T07:08:10.033Z,49.20
2019-06-27T07:10:39.152Z,48.40
2019-06-27T07:13:07.683Z,48.70
2019-06-27T07:15:36.548Z,48.90
2019-06-27T07:20:33.345Z,49.00
2019-06-27T07:27:59.562Z,49.30
2019-06-27T07:32:56.662Z,49.10
2019-06-27T07:35:25.524Z,49.10
2019-06-27T07:37:54.385Z,48.80
2019-06-27T07:40:23.247Z,48.60
2019-06-27T07:42:52.071Z,47.90
2019-06-27T07:47:49.488Z,49.10
2019-06-27T07:50:17.961Z,49.10
2019-06-27T07:52:46.782Z,49.10
2019-06-27T07:55:15.304Z,48.70
2019-06-27T08:00:12.278Z,48.80
2019-06-27T08:02:41.209Z,48.40
2019-06-27T08:05:09.997Z,48.30
2019-06-27T08:07:38.642Z,48.70
2019-06-27T08:10:07.255Z,48.80
2019-06-27T08:12:35.714Z,48.80
2019-06-27T08:15:04.518Z,48.60
2019-06-27T08:17:33.553Z,48.90
2019-06-27T08:20:02.488Z,49.30
2019-06-27T08:22:30.992Z,48.10
2019-06-27T08:24:59.470Z,48.70
2019-06-27T08:27:28.618Z,48.90
2019-06-27T08:32:26.081Z,49.10
2019-06-27T08:39:51.835Z,49.40
2019-06-27T08:42:20.695Z,48.50
2019-06-27T08:44:49.454Z,48.60
2019-06-27T08:47:17.951Z,48.60
2019-06-27T08:49:46.421Z,48.80
2019-06-27T08:52:15.294Z,48.30
2019-06-27T08:54:44.136Z,48.10
2019-06-27T08:59:41.259Z,48.30
2019-06-27T09:02:10.023Z,48.10
2019-06-27T09:04:38.518Z,48.50
2019-06-27T09:07:07.388Z,48.40
2019-06-27T09:09:35.917Z,48.50
2019-06-27T09:12:04.404Z,48.80
2019-06-27T09:14:33.457Z,48.20
2019-06-27T09:17:02.539Z,48.40
2019-06-27T09:19:31.443Z,48.50
2019-06-27T09:21:59.927Z,48.10
2019-06-27T09:24:29.068Z,48.40
2019-06-27T09:26:57.936Z,48.40
2019-06-27T09:29:26.416Z,48.80
2019-06-27T09:31:55.567Z,49.70
2019-06-27T09:34:24.357Z,48.20
2019-06-27T09:36:53.111Z,48.10
2019-06-27T09:41:50.561Z,48.40
2019-06-27T09:44:19.315Z,48.10
2019-06-27T09:46:48.103Z,48.30
2019-06-27T09:49:16.940Z,48.80
2019-06-27T09:54:13.694Z,48.10
2019-06-27T09:56:42.803Z,47.80
2019-06-27T09:59:11.294Z,48.10
2019-06-27T10:01:40.486Z,48.20
2019-06-27T10:04:09.591Z,48.40
2019-06-27T10:06:38.582Z,48.30
2019-06-27T10:09:07.153Z,48.20
2019-06-27T10:11:36.083Z,48.00
2019-06-27T10:14:04.825Z,47.90
2019-06-27T10:16:34.018Z,48.40
2019-06-27T10:19:03.146Z,48.40
2019-06-27T10:21:31.642Z,48.10
2019-06-27T10:24:00.541Z,48.00
2019-06-27T10:26:29.625Z,47.80
2019-06-27T10:28:58.122Z,48.50
2019-06-27T10:31:27.289Z,48.30
2019-06-27T10:33:56.420Z,48.10
2019-06-27T10:36:24.921Z,48.10
2019-06-27T10:41:22.591Z,47.80
2019-06-27T10:46:20.141Z,48.10
2019-06-27T10:48:48.906Z,47.80
2019-06-27T10:51:17.760Z,47.90
2019-06-27T10:56:15.423Z,48.10
2019-06-27T10:58:43.915Z,47.80
2019-06-27T11:01:13.035Z,47.80
2019-06-27T11:03:41.889Z,47.80
2019-06-27T11:06:10.706Z,47.90
2019-06-27T11:08:39.537Z,48.40
2019-06-27T11:11:08.842Z,47.50
2019-06-27T11:18:34.938Z,48.50
2019-06-27T11:21:04.042Z,47.70
2019-06-27T11:23:33.000Z,47.60
2019-06-27T11:26:01.926Z,47.60
2019-06-27T11:28:30.898Z,47.70
2019-06-27T11:30:59.388Z,47.30
2019-06-27T11:35:57.334Z,47.30
2019-06-27T11:38:26.112Z,47.40
2019-06-27T11:40:54.605Z,47.40
2019-06-27T11:45:52.079Z,46.80
2019-06-27T11:48:20.573Z,47.30
2019-06-27T11:50:49.065Z,47.70
2019-06-27T11:53:18.187Z,47.60
2019-06-27T11:55:47.315Z,47.70
2019-06-27T11:58:16.295Z,47.80
2019-06-27T12:00:44.813Z,48.00
2019-06-27T12:05:42.317Z,47.10
2019-06-27T12:08:11.157Z,47.60
2019-06-27T12:10:39.630Z,47.70
2019-06-27T12:13:08.750Z,48.10
2019-06-27T12:15:37.535Z,47.70
2019-06-27T12:20:35.005Z,47.70
2019-06-27T12:28:00.797Z,47.30
2019-06-27T12:30:29.314Z,47.50
2019-06-27T12:40:23.755Z,47.50
2019-06-27T12:42:52.682Z,47.30
2019-06-27T12:45:21.179Z,47.70
2019-06-27T12:47:50.241Z,47.50
2019-06-27T12:52:47.810Z,48.00
2019-06-27T12:55:16.290Z,47.60
2019-06-27T12:57:45.422Z,47.60
2019-06-27T13:00:14.160Z,47.40
2019-06-27T13:05:11.749Z,47.60
2019-06-27T13:07:40.309Z,47.20
2019-06-27T13:10:09.090Z,47.60
2019-06-27T13:12:37.571Z,47.60
2019-06-27T13:20:03.685Z,47.30
2019-06-27T13:22:32.813Z,47.40
2019-06-27T13:25:01.567Z,47.60
2019-06-27T13:27:30.303Z,47.50
2019-06-27T13:32:28.086Z,47.50
2019-06-27T13:37:25.595Z,47.50
2019-06-27T13:39:54.457Z,48.10
2019-06-27T13:42:23.758Z,46.90
2019-06-27T13:44:52.274Z,47.10
2019-06-27T13:47:20.775Z,47.20
2019-06-27T13:49:49.259Z,47.30
2019-06-27T13:52:18.006Z,47.20
2019-06-27T13:54:46.534Z,46.90
2019-06-27T13:57:15.695Z,46.90
2019-06-27T13:59:44.859Z,47.50
2019-06-27T14:02:13.924Z,47.00
2019-06-27T14:12:08.756Z,47.20
2019-06-27T14:14:37.934Z,46.90
2019-06-27T14:17:06.779Z,47.00
2019-06-27T14:19:35.562Z,46.90
2019-06-27T14:22:04.330Z,46.80
2019-06-27T14:24:33.020Z,47.10
2019-06-27T14:27:04.525Z,46.90
2019-06-27T14:29:30.721Z,46.90
2019-06-27T14:31:59.869Z,46.90
2019-06-27T14:34:28.973Z,46.90
2019-06-27T14:39:26.093Z,47.40
2019-06-27T14:41:55.275Z,47.00
2019-06-27T14:44:24.026Z,47.30
2019-06-27T14:51:49.865Z,47.20
2019-06-27T14:56:47.504Z,47.10
2019-06-27T14:59:16.368Z,47.10
2019-06-27T15:01:45.246Z,46.90
2019-06-27T15:04:14.125Z,47.10
2019-06-27T15:11:40.114Z,46.80
2019-06-27T15:14:09.234Z,46.90
2019-06-27T15:16:38.011Z,46.70
2019-06-27T15:19:06.764Z,46.80
2019-06-27T15:21:35.521Z,47.00
2019-06-27T15:26:32.923Z,47.10
2019-06-27T15:29:01.667Z,46.90
2019-06-27T15:31:30.842Z,47.10
2019-06-27T15:33:59.973Z,46.90
2019-06-27T15:38:57.223Z,46.90
2019-06-27T15:41:26.325Z,46.80
2019-06-27T15:46:23.806Z,46.70
2019-06-27T15:51:21.607Z,46.60
2019-06-27T15:53:50.879Z,46.40
2019-06-27T15:56:20.010Z,46.40
2019-06-27T15:58:49.143Z,46.20
2019-06-27T16:01:18.030Z,46.10
2019-06-27T16:03:46.910Z,46.00
2019-06-27T16:06:16.050Z,46.00
2019-06-27T16:13:41.964Z,45.70
2019-06-27T16:16:10.723Z,45.50
2019-06-27T16:18:40.945Z,45.30
2019-06-27T16:23:36.903Z,45.10
2019-06-27T16:26:05.764Z,44.60
2019-06-27T16:28:35.075Z,45.00
2019-06-27T16:31:03.986Z,44.50
2019-06-27T16:33:32.504Z,44.80
2019-06-27T16:36:01.699Z,44.70
2019-06-27T16:38:30.438Z,44.30
2019-06-27T16:40:59.494Z,44.30
2019-06-27T16:43:28.358Z,43.90
2019-06-27T16:45:57.222Z,43.90
2019-06-27T16:48:26.318Z,43.70
2019-06-27T16:50:55.086Z,43.70
2019-06-27T16:53:24.226Z,43.30
2019-06-27T16:55:53.314Z,43.30
2019-06-27T16:58:22.107Z,43.30
2019-06-27T17:00:50.927Z,43.20
2019-06-27T17:03:19.763Z,43.70
2019-06-27T17:05:48.881Z,43.00
2019-06-27T17:10:45.991Z,42.70
2019-06-27T17:13:14.859Z,42.30
2019-06-27T17:15:43.418Z,42.40
2019-06-27T17:20:40.853Z,42.10
2019-06-27T17:23:09.729Z,41.90
2019-06-27T17:25:38.438Z,42.30
2019-06-27T17:28:06.962Z,41.80
2019-06-27T17:30:35.523Z,41.80
2019-06-27T17:35:32.634Z,41.50
2019-06-27T17:38:01.530Z,41.10
2019-06-27T17:40:30.629Z,41.00
2019-06-27T17:42:59.402Z,40.90
2019-06-27T17:45:28.217Z,40.90
2019-06-27T17:47:57.365Z,40.70
2019-06-27T17:50:25.877Z,40.60
2019-06-27T17:52:54.760Z,40.70
2019-06-27T17:55:23.805Z,40.70
2019-06-27T18:00:20.587Z,40.30
2019-06-27T18:02:49.471Z,40.60
2019-06-27T18:05:18.823Z,40.50
2019-06-27T18:07:47.713Z,40.30
2019-06-27T18:10:16.227Z,40.00
2019-06-27T18:12:45.378Z,40.20
2019-06-27T18:15:14.470Z,40.00
2019-06-27T18:17:43.362Z,40.10
2019-06-27T18:20:11.874Z,40.10
2019-06-27T18:22:41.014Z,39.90
2019-06-27T18:25:10.143Z,40.10
2019-06-27T18:27:39.242Z,40.20
2019-06-27T18:30:07.798Z,40.40
2019-06-27T18:32:36.780Z,40.50
2019-06-27T18:35:05.503Z,40.40
2019-06-27T18:37:34.605Z,40.20
2019-06-27T18:40:03.143Z,40.40
2019-06-27T18:42:32.284Z,40.40
2019-06-27T18:45:01.426Z,40.90
2019-06-27T18:47:30.118Z,40.40
2019-06-27T18:49:58.881Z,40.30
2019-06-27T18:52:27.374Z,40.50
2019-06-27T18:54:56.453Z,41.40
2019-06-27T18:57:25.678Z,41.70
2019-06-27T18:59:54.773Z,41.50
2019-06-27T19:02:23.651Z,41.80
2019-06-27T19:04:52.820Z,42.10
2019-06-27T19:09:50.004Z,42.30
2019-06-27T19:12:19.366Z,42.40
2019-06-27T19:14:47.403Z,42.60
2019-06-27T19:17:16.531Z,42.70
2019-06-27T19:19:46.783Z,42.80
2019-06-27T19:22:20.408Z,42.70
2019-06-27T19:24:54.054Z,42.90
2019-06-27T19:29:51.510Z,43.10
2019-06-27T19:32:20.759Z,43.00
2019-06-27T19:34:49.269Z,43.20
2019-06-27T19:37:18.138Z,43.30
2019-06-27T19:39:46.923Z,42.60
2019-06-27T19:42:15.425Z,43.30
2019-06-27T19:44:44.592Z,43.40
2019-06-27T19:49:42.441Z,43.60
2019-06-27T19:54:39.554Z,43.80
2019-06-27T19:57:08.377Z,43.60
2019-06-27T19:59:37.253Z,43.70
2019-06-27T20:02:06.058Z,43.90
2019-06-27T20:04:35.172Z,44.00
2019-06-27T20:09:32.305Z,43.90
2019-06-27T20:12:01.172Z,44.00
2019-06-27T20:14:29.928Z,44.10
2019-06-27T20:16:58.690Z,44.00
2019-06-27T20:21:56.202Z,44.20
2019-06-27T20:24:24.696Z,44.30
2019-06-27T20:26:53.570Z,44.20
2019-06-27T20:29:22.318Z,44.30
2019-06-27T20:34:19.395Z,44.50
2019-06-27T20:41:45.405Z,44.60
2019-06-27T20:44:14.547Z,44.70
2019-06-27T20:49:11.517Z,44.80
2019-06-27T20:51:40.674Z,44.90
2019-06-27T20:54:12.158Z,44.90
